MMTM/TAM METAR and TAF weather

Enter ICAO airport designator
Station Type Date Time Source
MMTM METAR 2019/08/22 03:40 UTC NOAA

MMTM 220340Z 16006KT 8SM SKC 28/24 A2993 RMK SC


Station Type Date Time Source
MMTM Decoded METAR 2019/08/22 03:40 UTC NOAA

Station name not available
Aug 21, 2019 - 11:40 PM EDT / 2019.08.22 0340 UTC
Wind: from the SSE (160 degrees) at 7 MPH (6 KT):0
Visibility: 8 mile(s):0
Sky conditions: clear
Temperature: 82 F (28 C)
Dew Point: 75 F (24 C)
Relative Humidity: 78%
Pressure (altimeter): 29.93 in. Hg (1013 hPa)
ob: MMTM 220340Z 16006KT 8SM SKC 28/24 A2993 RMK SC
cycle: 3

Station Type Date Time Source
MMTM TAF 2019/08/22 06:06 UTC NOAA

TAF MMTM 220503Z 2206/2306 16005KT P6SM SKC
FM221800 12012KT P6SM SCT015 BKN250
FM230500 14005KT P6SM SKC

Example: see airport list